Time,TemperatureF,DewpointF,PressureIn,WindDirection,WindDirectionDegrees,WindSpeedMPH,WindSpeedGustMPH,Humidity,HourlyPrecipIn,Conditions,Clouds,dailyrainin,SoftwareType,DateUTC
2013-07-31 08:10:00,59.7,58.3,18.34,East,86,2.0,2.0,95,0.00,,,0.01,Wunderground v.1.15,2013-07-31 12:10:00,
2013-07-31 08:15:00,60.2,58.8,18.34,East,86,2.0,2.0,95,0.00,,,0.01,Wunderground v.1.15,2013-07-31 12:15:00,
2013-07-31 08:20:00,60.5,59.1,18.34,East,86,2.0,3.0,95,0.00,,,0.01,Wunderground v.1.15,2013-07-31 12:20:00,
2013-07-31 08:25:00,60.7,59.3,18.34,ENE,78,3.0,4.0,95,0.00,,,0.01,Wunderground v.1.15,2013-07-31 12:25:00,
2013-07-31 08:30:00,61.1,59.7,18.34,ENE,78,3.0,3.0,95,0.00,,,0.01,Wunderground v.1.15,2013-07-31 12:30:00,
2013-07-31 08:35:00,61.5,60.1,18.34,ENE,78,3.0,3.0,95,0.00,,,0.01,Wunderground v.1.15,2013-07-31 12:35:00,
2013-07-31 08:45:00,62.0,60.3,18.34,ENE,72,3.0,4.0,94,0.00,,,0.01,Wunderground v.1.15,2013-07-31 12:45:00,
2013-07-31 08:50:00,62.4,60.7,18.34,ENE,72,3.0,3.0,94,0.00,,,0.01,Wunderground v.1.15,2013-07-31 12:50:00,
2013-07-31 08:55:00,63.0,61.2,18.34,ENE,73,3.0,3.0,94,0.00,,,0.01,Wunderground v.1.15,2013-07-31 12:55:00,
2013-07-31 09:00:00,63.2,61.4,18.34,ENE,70,3.0,4.0,94,0.00,,,0.01,Wunderground v.1.15,2013-07-31 13:00:00,
2013-07-31 09:10:00,63.6,61.5,18.34,ENE,70,2.0,3.0,93,0.00,,,0.01,Wunderground v.1.15,2013-07-31 13:10:00,
2013-07-31 09:15:00,63.8,61.7,18.34,ENE,69,3.0,3.0,93,0.00,,,0.01,Wunderground v.1.15,2013-07-31 13:15:00,
2013-07-31 09:20:00,64.2,62.1,18.34,ENE,69,2.0,3.0,93,0.00,,,0.01,Wunderground v.1.15,2013-07-31 13:20:00,
2013-07-31 09:25:00,64.5,62.1,18.34,ENE,75,2.0,3.0,92,0.00,,,0.01,Wunderground v.1.15,2013-07-31 13:25:00,
2013-07-31 09:30:00,64.7,62.0,18.34,East,82,2.0,6.0,91,0.00,,,0.01,Wunderground v.1.15,2013-07-31 13:30:00,
2013-07-31 09:35:00,65.2,62.5,18.34,ENE,78,2.0,6.0,91,0.00,,,0.01,Wunderground v.1.15,2013-07-31 13:35:00,
2013-07-31 09:45:00,65.7,62.4,18.34,ENE,78,2.0,6.0,89,0.00,,,0.01,Wunderground v.1.15,2013-07-31 13:45:00,
2013-07-31 09:50:00,66.2,62.9,18.34,ENE,78,1.0,1.0,89,0.00,,,0.01,Wunderground v.1.15,2013-07-31 13:50:00,
2013-07-31 09:55:00,66.5,62.5,18.34,ENE,78,1.0,2.0,87,0.00,,,0.01,Wunderground v.1.15,2013-07-31 13:55:00,
2013-07-31 10:00:00,66.5,62.2,18.34,ENE,78,1.0,1.0,86,0.00,,,0.01,Wunderground v.1.15,2013-07-31 14:00:00,
2013-07-31 10:10:00,67.4,63.1,18.34,East,81,1.0,3.0,86,0.00,,,0.01,Wunderground v.1.15,2013-07-31 14:10:00,
2013-07-31 10:15:00,67.3,61.6,18.34,East,86,2.0,4.0,82,0.00,,,0.01,Wunderground v.1.15,2013-07-31 14:15:00,
2013-07-31 10:25:00,67.7,62.0,18.34,East,84,1.0,4.0,82,0.00,,,0.01,Wunderground v.1.15,2013-07-31 14:25:00,
2013-07-31 10:30:00,67.7,61.7,18.34,East,84,1.0,1.0,81,0.00,,,0.01,Wunderground v.1.15,2013-07-31 14:30:00,
2013-07-31 10:35:00,67.7,60.6,18.34,East,84,1.0,7.0,78,0.00,,,0.01,Wunderground v.1.15,2013-07-31 14:35:00,
2013-07-31 10:40:00,68.1,61.7,18.34,East,84,1.0,7.0,80,0.00,,,0.01,Wunderground v.1.15,2013-07-31 14:40:00,
2013-07-31 10:45:00,68.1,61.7,18.34,East,84,1.0,7.0,80,0.00,,,0.01,Wunderground v.1.15,2013-07-31 14:45:00,
2013-07-31 10:50:00,68.1,61.7,18.34,East,84,1.0,1.0,80,0.00,,,0.01,Wunderground v.1.15,2013-07-31 14:50:00,
2013-07-31 10:55:00,68.3,62.2,18.34,East,86,2.0,2.0,81,0.00,,,0.01,Wunderground v.1.15,2013-07-31 14:55:00,
2013-07-31 11:00:00,68.1,62.4,18.34,East,86,2.0,2.0,82,0.00,,,0.01,Wunderground v.1.15,2013-07-31 15:00:00,
2013-07-31 11:10:00,68.5,62.1,18.34,East,80,2.0,2.0,80,0.00,,,0.01,Wunderground v.1.15,2013-07-31 15:10:00,
2013-07-31 11:15:00,68.7,62.3,18.34,East,83,2.0,2.0,80,0.00,,,0.01,Wunderground v.1.15,2013-07-31 15:15:00,
2013-07-31 11:25:00,69.2,62.4,18.34,ENE,63,2.0,3.0,79,0.00,,,0.01,Wunderground v.1.15,2013-07-31 15:25:00,
2013-07-31 11:30:00,69.1,61.6,18.34,ENE,60,1.0,1.0,77,0.00,,,0.01,Wunderground v.1.15,2013-07-31 15:30:00,
2013-07-31 11:35:00,69.4,61.9,18.34,ENE,61,1.0,5.0,77,0.00,,,0.01,Wunderground v.1.15,2013-07-31 15:35:00,
2013-07-31 11:40:00,69.7,61.4,18.34,ENE,74,2.0,2.0,75,0.00,,,0.01,Wunderground v.1.15,2013-07-31 15:40:00,
2013-07-31 11:45:00,70.1,61.4,18.34,East,82,2.0,5.0,74,0.00,,,0.01,Wunderground v.1.15,2013-07-31 15:45:00,
2013-07-31 11:50:00,70.4,60.9,18.34,East,84,3.0,3.0,72,0.00,,,0.01,Wunderground v.1.15,2013-07-31 15:50:00,
2013-07-31 11:55:00,70.8,62.1,18.34,NE,54,3.0,7.0,74,0.00,,,0.01,Wunderground v.1.15,2013-07-31 15:55:00,
2013-07-31 12:00:00,70.9,60.6,18.34,East,98,3.0,8.0,70,0.00,,,0.01,Wunderground v.1.15,2013-07-31 16:00:00,
2013-07-31 12:10:00,70.9,60.2,18.34,ENE,74,4.0,4.0,69,0.00,,,0.01,Wunderground v.1.15,2013-07-31 16:10:00,
2013-07-31 12:15:00,71.0,58.6,18.34,ENE,75,3.0,4.0,65,0.00,,,0.01,Wunderground v.1.15,2013-07-31 16:15:00,
2013-07-31 12:25:00,71.1,59.2,18.34,East,84,4.0,6.0,66,0.00,,,0.01,Wunderground v.1.15,2013-07-31 16:25:00,
2013-07-31 12:30:00,71.3,60.6,18.34,ENE,75,3.0,3.0,69,0.00,,,0.01,Wunderground v.1.15,2013-07-31 16:30:00,
2013-07-31 12:40:00,71.7,61.0,18.34,NNE,13,4.0,4.0,69,0.00,,,0.01,Wunderground v.1.15,2013-07-31 16:40:00,
2013-07-31 12:45:00,71.9,60.3,18.34,North,7,3.0,8.0,67,0.00,,,0.01,Wunderground v.1.15,2013-07-31 16:45:00,
2013-07-31 12:50:00,71.9,61.6,18.34,North,11,1.0,1.0,70,0.00,,,0.01,Wunderground v.1.15,2013-07-31 16:50:00,
2013-07-31 12:55:00,72.3,60.7,18.34,ENE,65,1.0,8.0,67,0.00,,,0.01,Wunderground v.1.15,2013-07-31 16:55:00,
2013-07-31 13:00:00,72.4,60.4,18.34,East,88,1.0,6.0,66,0.00,,,0.01,Wunderground v.1.15,2013-07-31 17:00:00,
2013-07-31 13:10:00,72.6,61.0,18.34,NNE,28,2.0,2.0,67,0.00,,,0.01,Wunderground v.1.15,2013-07-31 17:10:00,
2013-07-31 13:15:00,72.4,60.4,18.34,ENE,63,2.0,3.0,66,0.00,,,0.01,Wunderground v.1.15,2013-07-31 17:15:00,
2013-07-31 13:25:00,72.7,61.5,18.34,NE,54,1.0,2.0,68,0.00,,,0.01,Wunderground v.1.15,2013-07-31 17:25:00,
2013-07-31 13:30:00,72.9,60.9,18.34,East,80,1.0,1.0,66,0.00,,,0.01,Wunderground v.1.15,2013-07-31 17:30:00,
2013-07-31 13:35:00,73.0,61.8,18.34,NE,55,2.0,2.0,68,0.00,,,0.01,Wunderground v.1.15,2013-07-31 17:35:00,
2013-07-31 13:45:00,72.5,61.7,18.34,NE,45,3.0,9.0,69,0.00,,,0.01,Wunderground v.1.15,2013-07-31 17:45:00,
2013-07-31 13:50:00,72.6,62.3,18.34,NE,49,2.0,2.0,70,0.00,,,0.01,Wunderground v.1.15,2013-07-31 17:50:00,
2013-07-31 13:55:00,72.8,62.0,18.34,NE,40,1.0,9.0,69,0.00,,,0.01,Wunderground v.1.15,2013-07-31 17:55:00,
2013-07-31 14:00:00,72.8,62.0,18.34,East,84,2.0,2.0,69,0.00,,,0.01,Wunderground v.1.15,2013-07-31 18:00:00,
2013-07-31 14:10:00,72.9,60.9,18.34,East,85,2.0,4.0,66,0.00,,,0.01,Wunderground v.1.15,2013-07-31 18:10:00,
2013-07-31 14:20:00,73.1,61.9,18.34,ENE,78,2.0,2.0,68,0.00,,,0.01,Wunderground v.1.15,2013-07-31 18:20:00,
2013-07-31 14:25:00,73.2,61.2,18.34,ENE,78,2.0,4.0,66,0.00,,,0.01,Wunderground v.1.15,2013-07-31 18:25:00,
2013-07-31 14:30:00,73.1,61.1,18.34,ENE,76,3.0,3.0,66,0.00,,,0.01,Wunderground v.1.15,2013-07-31 18:30:00,
2013-07-31 14:35:00,73.2,61.6,18.34,ENE,77,2.0,8.0,67,0.00,,,0.01,Wunderground v.1.15,2013-07-31 18:35:00,
2013-07-31 14:40:00,72.9,61.7,18.34,NE,56,1.0,1.0,68,0.00,,,0.01,Wunderground v.1.15,2013-07-31 18:40:00,
2013-07-31 14:50:00,72.7,60.3,18.34,East,80,3.0,8.0,65,0.00,,,0.01,Wunderground v.1.15,2013-07-31 18:50:00,
2013-07-31 14:55:00,72.6,59.3,18.34,East,82,3.0,8.0,63,0.00,,,0.01,Wunderground v.1.15,2013-07-31 18:55:00,
2013-07-31 15:00:00,72.8,59.0,18.34,East,82,2.0,2.0,62,0.00,,,0.01,Wunderground v.1.15,2013-07-31 19:00:00,
2013-07-31 15:10:00,73.3,60.4,18.34,ENE,77,2.0,2.0,64,0.00,,,0.01,Wunderground v.1.15,2013-07-31 19:10:00,
2013-07-31 15:15:00,73.0,60.1,18.34,ENE,69,4.0,4.0,64,0.00,,,0.01,Wunderground v.1.15,2013-07-31 19:15:00,
2013-07-31 15:20:00,73.1,60.6,18.34,East,87,4.0,6.0,65,0.00,,,0.01,Wunderground v.1.15,2013-07-31 19:20:00,
2013-07-31 15:25:00,73.3,60.8,18.34,ENE,63,2.0,6.0,65,0.00,,,0.01,Wunderground v.1.15,2013-07-31 19:25:00,
2013-07-31 15:30:00,73.4,60.5,18.34,ENE,63,2.0,2.0,64,0.00,,,0.01,Wunderground v.1.15,2013-07-31 19:30:00,
2013-07-31 15:40:00,73.4,60.0,18.34,NE,38,1.0,1.0,63,0.00,,,0.01,Wunderground v.1.15,2013-07-31 19:40:00,
2013-07-31 15:45:00,73.1,59.3,18.34,ENE,76,2.0,2.0,62,0.00,,,0.01,Wunderground v.1.15,2013-07-31 19:45:00,
2013-07-31 15:55:00,73.8,59.5,18.34,East,85,3.0,9.0,61,0.00,,,0.01,Wunderground v.1.15,2013-07-31 19:55:00,
2013-07-31 16:00:00,74.0,59.7,18.34,East,90,3.0,3.0,61,0.00,,,0.01,Wunderground v.1.15,2013-07-31 20:00:00,
2013-07-31 16:10:00,74.3,60.9,18.34,ENE,66,1.0,5.0,63,0.00,,,0.01,Wunderground v.1.15,2013-07-31 20:10:00,
2013-07-31 16:20:00,74.0,59.7,18.34,ENE,73,4.0,6.0,61,0.00,,,0.01,Wunderground v.1.15,2013-07-31 20:20:00,
2013-07-31 16:25:00,74.2,60.8,18.34,ENE,73,2.0,6.0,63,0.00,,,0.01,Wunderground v.1.15,2013-07-31 20:25:00,
2013-07-31 16:30:00,74.5,61.1,18.34,ENE,74,1.0,3.0,63,0.00,,,0.01,Wunderground v.1.15,2013-07-31 20:30:00,
2013-07-31 16:35:00,74.4,60.1,18.34,ENE,74,1.0,9.0,61,0.00,,,0.01,Wunderground v.1.15,2013-07-31 20:35:00,
2013-07-31 16:40:00,74.6,60.7,18.34,ENE,73,1.0,1.0,62,0.00,,,0.01,Wunderground v.1.15,2013-07-31 20:40:00,
2013-07-31 16:45:00,74.6,61.2,18.34,East,95,1.0,6.0,63,0.00,,,0.01,Wunderground v.1.15,2013-07-31 20:45:00,
2013-07-31 16:50:00,74.5,60.2,18.34,East,91,2.0,2.0,61,0.00,,,0.01,Wunderground v.1.15,2013-07-31 20:50:00,
2013-07-31 17:00:00,74.7,60.8,18.34,East,84,0.0,0.0,62,0.00,,,0.01,Wunderground v.1.15,2013-07-31 21:00:00,
2013-07-31 17:10:00,74.7,60.8,18.34,East,84,1.0,1.0,62,0.00,,,0.01,Wunderground v.1.15,2013-07-31 21:10:00,
2013-07-31 17:15:00,74.6,61.2,18.34,ENE,78,1.0,5.0,63,0.00,,,0.01,Wunderground v.1.15,2013-07-31 21:15:00,
2013-07-31 17:20:00,74.5,61.1,18.34,East,80,2.0,2.0,63,0.00,,,0.01,Wunderground v.1.15,2013-07-31 21:20:00,
2013-07-31 17:25:00,74.6,62.1,18.34,East,82,2.0,2.0,65,0.00,,,0.01,Wunderground v.1.15,2013-07-31 21:25:00,
2013-07-31 17:30:00,74.5,61.5,18.34,East,82,1.0,1.0,64,0.00,,,0.01,Wunderground v.1.15,2013-07-31 21:30:00,
2013-07-31 17:35:00,74.5,61.1,18.34,East,93,1.0,9.0,63,0.00,,,0.01,Wunderground v.1.15,2013-07-31 21:35:00,
2013-07-31 17:40:00,74.4,61.9,18.34,East,83,2.0,9.0,65,0.00,,,0.01,Wunderground v.1.15,2013-07-31 21:40:00,
2013-07-31 17:45:00,74.3,61.3,18.34,East,85,3.0,9.0,64,0.00,,,0.01,Wunderground v.1.15,2013-07-31 21:45:00,
2013-07-31 17:50:00,74.3,60.9,18.34,East,80,4.0,4.0,63,0.00,,,0.01,Wunderground v.1.15,2013-07-31 21:50:00,
2013-07-31 18:00:00,74.3,60.9,18.34,East,83,3.0,3.0,63,0.00,,,0.01,Wunderground v.1.15,2013-07-31 22:00:00,
2013-07-31 18:10:00,74.4,61.0,18.34,ENE,76,3.0,3.0,63,0.00,,,0.01,Wunderground v.1.15,2013-07-31 22:10:00,
2013-07-31 18:15:00,74.4,61.0,18.34,East,83,3.0,4.0,63,0.00,,,0.01,Wunderground v.1.15,2013-07-31 22:15:00,
2013-07-31 18:20:00,74.3,60.4,18.34,East,80,3.0,4.0,62,0.00,,,0.01,Wunderground v.1.15,2013-07-31 22:20:00,
2013-07-31 18:25:00,74.3,61.3,18.34,East,89,3.0,5.0,64,0.00,,,0.01,Wunderground v.1.15,2013-07-31 22:25:00,
2013-07-31 18:30:00,74.4,61.0,18.34,East,86,3.0,3.0,63,0.00,,,0.01,Wunderground v.1.15,2013-07-31 22:30:00,
2013-07-31 18:40:00,74.3,61.3,18.34,East,90,3.0,7.0,64,0.00,,,0.01,Wunderground v.1.15,2013-07-31 22:40:00,
2013-07-31 18:45:00,74.2,61.2,18.34,East,90,3.0,7.0,64,0.00,,,0.01,Wunderground v.1.15,2013-07-31 22:45:00,
2013-07-31 18:50:00,74.2,61.7,18.34,East,90,2.0,7.0,65,0.00,,,0.01,Wunderground v.1.15,2013-07-31 22:50:00,
2013-07-31 18:55:00,74.2,62.1,18.34,East,89,1.0,7.0,66,0.00,,,0.01,Wunderground v.1.15,2013-07-31 22:55:00,
2013-07-31 19:00:00,74.3,61.8,18.34,East,89,2.0,2.0,65,0.00,,,0.01,Wunderground v.1.15,2013-07-31 23:00:00,
2013-07-31 19:10:00,74.3,61.8,18.34,East,88,1.0,1.0,65,0.00,,,0.01,Wunderground v.1.15,2013-07-31 23:10:00,
2013-07-31 19:15:00,74.4,62.3,18.34,East,88,1.0,1.0,66,0.00,,,0.01,Wunderground v.1.15,2013-07-31 23:15:00,
2013-07-31 19:20:00,74.2,62.5,18.34,East,88,1.0,1.0,67,0.00,,,0.01,Wunderground v.1.15,2013-07-31 23:20:00,
2013-07-31 19:25:00,74.1,62.9,18.34,East,88,1.0,1.0,68,0.00,,,0.01,Wunderground v.1.15,2013-07-31 23:25:00,
2013-07-31 19:35:00,73.5,62.7,18.34,East,84,1.0,9.0,69,0.00,,,0.01,Wunderground v.1.15,2013-07-31 23:35:00,
2013-07-31 19:45:00,72.8,62.8,18.34,East,84,0.0,9.0,71,0.00,,,0.01,Wunderground v.1.15,2013-07-31 23:45:00,
2013-07-31 19:50:00,72.4,62.5,18.34,East,84,0.0,9.0,71,0.00,,,0.01,Wunderground v.1.15,2013-07-31 23:50:00,
2013-07-31 19:55:00,72.0,62.5,18.34,East,84,0.0,9.0,72,0.00,,,0.01,Wunderground v.1.15,2013-07-31 23:55:00,
2013-07-31 20:00:00,71.6,62.5,18.34,East,84,0.0,0.0,73,0.00,,,0.01,Wunderground v.1.15,2013-08-01 00:00:00,
2013-07-31 20:10:00,70.7,62.4,18.34,East,84,0.0,0.0,75,0.00,,,0.01,Wunderground v.1.15,2013-08-01 00:10:00,
2013-07-31 20:20:00,69.8,61.9,18.34,East,84,0.0,0.0,76,0.00,,,0.01,Wunderground v.1.15,2013-08-01 00:20:00,
2013-07-31 20:25:00,69.4,61.9,18.34,East,84,0.0,0.0,77,0.00,,,0.01,Wunderground v.1.15,2013-08-01 00:25:00,
2013-07-31 20:30:00,69.1,61.9,18.34,East,84,0.0,0.0,78,0.00,,,0.01,Wunderground v.1.15,2013-08-01 00:30:00,
2013-07-31 20:35:00,68.7,61.9,18.34,East,84,0.0,6.0,79,0.00,,,0.01,Wunderground v.1.15,2013-08-01 00:35:00,
2013-07-31 20:45:00,68.2,61.8,18.34,East,84,0.0,6.0,80,0.00,,,0.01,Wunderground v.1.15,2013-08-01 00:45:00,
2013-07-31 20:50:00,68.1,61.7,18.34,East,84,0.0,6.0,80,0.00,,,0.01,Wunderground v.1.15,2013-08-01 00:50:00,
2013-07-31 20:55:00,68.0,61.6,18.34,East,84,0.0,6.0,80,0.00,,,0.01,Wunderground v.1.15,2013-08-01 00:55:00,
2013-07-31 21:00:00,67.9,61.5,18.34,East,84,0.0,0.0,80,0.00,,,0.01,Wunderground v.1.15,2013-08-01 01:00:00,
2013-07-31 21:10:00,67.6,61.2,18.34,East,84,0.0,0.0,80,0.00,,,0.01,Wunderground v.1.15,2013-08-01 01:10:00,
2013-07-31 21:15:00,67.4,61.0,18.34,East,84,0.0,0.0,80,0.00,,,0.01,Wunderground v.1.15,2013-08-01 01:15:00,
2013-07-31 21:20:00,67.2,61.2,18.34,East,84,0.0,0.0,81,0.00,,,0.01,Wunderground v.1.15,2013-08-01 01:20:00,
2013-07-31 21:25:00,67.1,61.1,18.34,East,84,0.0,0.0,81,0.00,,,0.01,Wunderground v.1.15,2013-08-01 01:25:00,
2013-07-31 21:30:00,66.9,60.9,18.34,East,84,0.0,0.0,81,0.00,,,0.01,Wunderground v.1.15,2013-08-01 01:30:00,
2013-07-31 21:35:00,67.0,61.0,18.34,East,84,0.0,0.0,81,0.00,,,0.01,Wunderground v.1.15,2013-08-01 01:35:00,
2013-07-31 21:40:00,67.0,61.0,18.34,East,84,0.0,0.0,81,0.00,,,0.01,Wunderground v.1.15,2013-08-01 01:40:00,
2013-07-31 21:45:00,67.0,61.0,18.34,East,84,0.0,0.0,81,0.00,,,0.01,Wunderground v.1.15,2013-08-01 01:45:00,
2013-07-31 21:50:00,66.9,60.9,18.34,East,84,0.0,0.0,81,0.00,,,0.01,Wunderground v.1.15,2013-08-01 01:50:00,
2013-07-31 22:00:00,66.7,60.7,18.34,East,84,0.0,0.0,81,0.00,,,0.01,Wunderground v.1.15,2013-08-01 02:00:00,
2013-07-31 22:10:00,66.4,60.7,18.34,East,84,0.0,0.0,82,0.00,,,0.01,Wunderground v.1.15,2013-08-01 02:10:00,
2013-07-31 22:15:00,66.4,60.7,18.34,East,84,0.0,0.0,82,0.00,,,0.01,Wunderground v.1.15,2013-08-01 02:15:00,
2013-07-31 22:20:00,66.5,60.8,18.34,East,84,0.0,0.0,82,0.00,,,0.01,Wunderground v.1.15,2013-08-01 02:20:00,
2013-07-31 22:25:00,66.6,60.9,18.34,East,84,0.0,0.0,82,0.00,,,0.01,Wunderground v.1.15,2013-08-01 02:25:00,
2013-07-31 22:35:00,66.6,60.9,18.34,East,84,0.0,1.0,82,0.00,,,0.01,Wunderground v.1.15,2013-08-01 02:35:00,
2013-07-31 22:40:00,66.5,60.8,18.34,East,84,0.0,1.0,82,0.00,,,0.01,Wunderground v.1.15,2013-08-01 02:40:00,
2013-07-31 22:45:00,66.4,60.7,18.34,East,84,0.0,1.0,82,0.00,,,0.01,Wunderground v.1.15,2013-08-01 02:45:00,
2013-07-31 22:50:00,66.4,60.7,18.34,East,84,0.0,1.0,82,0.00,,,0.01,Wunderground v.1.15,2013-08-01 02:50:00,
2013-07-31 22:55:00,66.4,60.7,18.34,East,84,0.0,1.0,82,0.00,,,0.01,Wunderground v.1.15,2013-08-01 02:55:00,
2013-07-31 23:00:00,66.4,60.7,18.34,East,83,0.0,0.0,82,0.00,,,0.01,Wunderground v.1.15,2013-08-01 03:00:00,
2013-07-31 23:10:00,66.2,60.5,18.34,East,83,0.0,2.0,82,0.00,,,0.01,Wunderground v.1.15,2013-08-01 03:10:00,
2013-07-31 23:15:00,66.2,60.5,18.34,East,83,0.0,2.0,82,0.00,,,0.01,Wunderground v.1.15,2013-08-01 03:15:00,
2013-07-31 23:20:00,66.2,60.5,18.34,East,83,0.0,0.0,82,0.00,,,0.01,Wunderground v.1.15,2013-08-01 03:20:00,
2013-07-31 23:25:00,66.1,60.4,18.34,East,83,0.0,0.0,82,0.00,,,0.01,Wunderground v.1.15,2013-08-01 03:25:00,
2013-07-31 23:35:00,66.1,60.4,18.34,ENE,77,1.0,3.0,82,0.00,,,0.01,Wunderground v.1.15,2013-08-01 03:35:00,
2013-07-31 23:40:00,66.2,60.5,18.34,ENE,74,1.0,1.0,82,0.00,,,0.01,Wunderground v.1.15,2013-08-01 03:40:00,
2013-07-31 23:45:00,66.2,60.5,18.34,ENE,74,1.0,3.0,82,0.00,,,0.01,Wunderground v.1.15,2013-08-01 03:45:00,
2013-07-31 23:50:00,66.2,60.5,18.34,ENE,71,1.0,1.0,82,0.00,,,0.01,Wunderground v.1.15,2013-08-01 03:50:00,
2013-07-31 23:55:00,66.3,60.6,18.34,ENE,68,1.0,3.0,82,0.00,,,0.01,Wunderground v.1.15,2013-08-01 03:55:00,